Time;durP1;ratioP1;P1;durP2;ratioP2;P2;SDS_P1;SDS_P2;PMS_P1;PMS_P2;Temp;Humidity;BMP_temperature;BMP_pressure;BME280_temperature;BME280_humidity;BME280_pressure;Samples;Min_cycle;Max_cycle;Signal;HPM_P1;HPM_P2
2022/01/12 00:01:12;;;;;;;34.83;18.73;;;;;;;-2.30;70.29;100790.42;2189505;81;20979;-81
2022/01/12 00:04:13;;;;;;;39.40;18.47;;;;;;;-2.28;70.29;100788.01;2190518;81;21000;-81
2022/01/12 00:07:13;;;;;;;164.37;28.10;;;;;;;-2.28;70.25;100786.73;2190120;81;21063;-81
2022/01/12 00:10:14;;;;;;;46.83;21.90;;;;;;;-2.31;70.01;100791.18;2189790;81;21063;-82
2022/01/12 00:13:15;;;;;;;38.23;20.10;;;;;;;-2.33;70.00;100788.86;2190241;81;20972;-82
2022/01/12 00:16:15;;;;;;;45.57;22.40;;;;;;;-2.32;69.78;100783.37;2190609;81;20979;-81
2022/01/12 00:19:16;;;;;;;44.90;22.60;;;;;;;-2.34;69.63;100786.16;2190152;81;20992;-81
2022/01/12 00:22:16;;;;;;;44.17;21.53;;;;;;;-2.32;70.04;100789.38;2190423;81;21016;-82
2022/01/12 00:34:57;;;;;;;51.97;24.57;;;;;;;-2.41;69.71;100787.62;2190817;81;21415;-80
2022/01/12 00:37:57;;;;;;;215.43;118.07;;;;;;;-2.37;76.61;100792.27;2190088;81;20991;-81
2022/01/12 00:40:58;;;;;;;90.73;45.73;;;;;;;2.08;98.35;100776.36;2189686;81;21000;-81
2022/01/12 00:44:00;;;;;;;60.37;29.93;;;;;;;3.71;69.05;100765.11;2189112;81;20952;-81
2022/01/12 00:47:00;;;;;;;60.27;28.60;;;;;;;2.27;64.82;100769.23;2189508;81;21040;-81
2022/01/12 00:50:01;;;;;;;51.40;25.93;;;;;;;1.28;64.47;100777.89;2190040;81;20983;-82
2022/01/12 00:53:03;;;;;;;52.87;26.47;;;;;;;0.58;64.27;100781.19;2189917;81;20952;-81
2022/01/12 00:56:03;;;;;;;46.73;23.77;;;;;;;0.01;64.66;100776.37;2190127;81;21039;-82
2022/01/12 00:59:04;;;;;;;45.47;23.77;;;;;;;-0.46;65.08;100786.05;2191375;81;20984;-82
2022/01/12 01:02:04;;;;;;;48.77;26.10;;;;;;;-0.71;65.45;100794.19;2189829;81;21003;-82
2022/01/12 01:05:05;;;;;;;40.17;23.47;;;;;;;-0.93;65.62;100785.73;2190615;81;20972;-81
2022/01/12 01:08:06;;;;;;;46.73;23.73;;;;;;;-1.11;66.06;100793.61;2190603;81;20968;-81
2022/01/12 01:11:06;;;;;;;45.07;23.43;;;;;;;-1.30;66.23;100791.46;2191030;81;21007;-81
2022/01/12 01:14:23;;;;;;;49.90;26.27;;;;;;;-1.43;66.63;100788.56;2190464;81;21380;-82
2022/01/12 01:25:29;;;;;;;45.90;22.90;;;;;;;-1.52;67.05;100788.64;2189306;81;20944;-81
2022/01/12 01:26:58;;;;;;;34.00;18.30;;;;;;;-1.87;66.53;100785.41;2190267;81;21056;-81
2022/01/12 01:29:58;;;;;;;36.10;20.07;;;;;;;-1.94;66.64;100781.78;2188899;81;21023;-81
2022/01/12 01:33:05;;;;;;;38.30;20.73;;;;;;;-2.00;66.87;100788.52;2188327;81;20964;-82
2022/01/12 01:36:01;;;;;;;48.20;22.77;;;;;;;-2.06;67.26;100779.00;2188199;81;21473;-81
2022/01/12 01:39:02;;;;;;;40.03;21.57;;;;;;;-2.07;67.53;100791.27;2188781;81;20968;-81
2022/01/12 01:42:07;;;;;;;42.00;21.53;;;;;;;-2.14;67.52;100785.07;2188783;81;20944;-82
2022/01/12 01:55:01;;;;;;;40.20;19.73;;;;;;;-2.42;66.80;100778.16;2190212;81;21007;-82
2022/01/12 01:58:01;;;;;;;38.73;19.10;;;;;;;-2.53;67.46;100774.97;2190659;81;20940;-81
2022/01/12 02:01:02;;;;;;;34.73;19.27;;;;;;;-2.53;67.79;100772.04;2190605;81;21024;-82
2022/01/12 02:04:04;;;;;;;40.57;19.97;;;;;;;-2.46;67.89;100773.52;2189878;81;20980;-82
2022/01/12 02:07:05;;;;;;;36.30;18.63;;;;;;;-2.44;67.72;100775.83;2190547;81;21051;-81
2022/01/12 02:10:09;;;;;;;39.92;20.57;;;;;;;-2.45;67.95;100772.75;2190117;81;21003;-82
2022/01/12 02:13:16;;;;;;;42.67;21.53;;;;;;;-2.45;67.96;100780.42;2190738;81;20999;-81
2022/01/12 02:16:26;;;;;;;41.77;20.30;;;;;;;-2.51;67.67;100779.47;2190486;81;21024;-83
2022/01/12 02:35:54;;;;;;;42.90;22.57;;;;;;;1.01;61.81;100761.55;2172300;82;20945;-82
2022/01/12 02:42:11;;;;;;;38.03;20.20;;;;;;;-0.40;62.03;100769.51;2172629;82;20985;-80
2022/01/12 02:55:00;;;;;;;38.73;22.33;;;;;;;-1.76;65.18;100774.88;2171559;82;20976;-80
2022/01/12 02:58:01;;;;;;;39.27;21.17;;;;;;;-1.87;65.35;100771.72;2173406;81;21786;-80
2022/01/12 03:04:05;;;;;;;49.83;26.23;;;;;;;-0.09;78.39;100767.87;2162794;82;21495;-80
2022/01/12 03:07:10;;;;;;;375.90;238.17;;;;;;;0.33;65.73;100759.40;2173791;81;21056;-80
2022/01/12 03:10:08;;;;;;;54.57;26.23;;;;;;;2.50;84.90;100753.80;2173928;81;21048;-81
2022/01/12 03:13:08;;;;;;;52.57;26.50;;;;;;;4.51;62.52;100752.03;2173970;81;21420;-82
2022/01/12 03:16:14;;;;;;;109.23;27.83;;;;;;;2.94;58.98;100753.98;2175035;81;21125;-81
2022/01/12 03:19:14;;;;;;;46.43;24.23;;;;;;;1.43;59.42;100764.03;2174460;81;20937;-78
2022/01/12 03:22:14;;;;;;;55.93;26.10;;;;;;;0.39;59.77;100769.28;2175148;81;20996;-82
2022/01/12 03:25:15;;;;;;;48.07;23.80;;;;;;;-0.56;61.07;100777.94;2174397;81;20960;-78
2022/01/12 03:28:15;;;;;;;49.70;25.07;;;;;;;-1.23;62.23;100789.96;2173763;81;20972;-82
2022/01/12 03:31:21;;;;;;;51.73;25.53;;;;;;;-1.69;63.36;100790.06;2174374;81;21079;-82
2022/01/12 03:34:25;;;;;;;54.43;26.03;;;;;;;-1.97;64.38;100781.50;2173147;81;21413;-81
2022/01/12 03:37:42;;;;;;;55.40;26.83;;;;;;;-2.11;65.05;100788.28;2173725;81;20937;-81
2022/01/12 03:40:41;;;;;;;50.67;25.07;;;;;;;-2.26;65.62;100786.11;2174263;81;21373;-82
2022/01/12 03:43:41;;;;;;;54.67;25.20;;;;;;;-2.33;65.71;100791.80;2175098;81;20948;-82
2022/01/12 03:46:44;;;;;;;55.50;26.80;;;;;;;-2.50;65.82;100795.72;2174983;81;20957;-81
2022/01/12 03:49:44;;;;;;;52.47;27.17;;;;;;;-2.55;66.43;100799.13;2173856;81;21398;-81
2022/01/12 03:52:45;;;;;;;54.77;25.30;;;;;;;-2.58;66.74;100791.16;2173676;81;20937;-81
2022/01/12 03:55:45;;;;;;;57.57;25.57;;;;;;;-2.67;66.79;100789.88;2175069;81;21046;-82
2022/01/12 03:58:46;;;;;;;50.30;26.40;;;;;;;-2.71;66.93;100786.89;2174923;81;20945;-82
2022/01/12 04:01:46;;;;;;;51.60;25.03;;;;;;;-2.84;66.82;100790.32;2174830;81;21094;-83
2022/01/12 04:05:09;;;;;;;57.23;27.50;;;;;;;-2.95;66.83;100786.75;2175148;81;21017;-81
2022/01/12 04:11:13;;;;;;;50.17;21.30;;;;;;;-3.07;66.54;100781.74;2174551;82;21023;-81
2022/01/12 04:14:14;;;;;;;57.07;25.27;;;;;;;-3.10;66.86;100774.69;2174766;81;21339;-81
2022/01/12 04:17:17;;;;;;;63.77;27.20;;;;;;;-3.05;66.78;100782.41;2174794;81;20957;-83
2022/01/12 04:20:17;;;;;;;92.40;32.50;;;;;;;-2.97;66.87;100788.25;2174883;81;21024;-82
2022/01/12 04:23:20;;;;;;;127.93;33.17;;;;;;;-2.93;66.75;100790.34;2174834;81;20984;-82
2022/01/12 04:26:20;;;;;;;81.20;25.37;;;;;;;-2.92;66.82;100802.38;2174536;81;21357;-82
2022/01/12 04:29:21;;;;;;;54.27;24.50;;;;;;;-2.88;66.89;100799.35;2174274;81;21004;-81
2022/01/12 04:32:23;;;;;;;52.93;23.63;;;;;;;-2.81;66.82;100803.02;2182495;81;21023;-82
2022/01/12 04:35:29;;;;;;;62.33;28.87;;;;;;;-2.79;67.07;100798.95;2190150;81;21019;-81
2022/01/12 04:38:27;;;;;;;63.00;28.50;;;;;;;-2.82;67.17;100803.77;2189805;81;21047;-80
2022/01/12 04:41:27;;;;;;;56.37;26.83;;;;;;;-2.84;67.18;100805.66;2189807;81;21012;-81
2022/01/12 04:44:28;;;;;;;63.83;27.53;;;;;;;-2.90;67.48;100800.48;2189101;81;21004;-80
2022/01/12 04:47:46;;;;;;;56.63;26.13;;;;;;;-2.92;67.28;100794.70;2189415;81;20983;-80
2022/01/12 04:50:31;;;;;;;56.67;26.63;;;;;;;-3.03;67.30;100797.52;2187095;81;21059;-79
2022/01/12 04:53:31;;;;;;;67.00;29.13;;;;;;;-3.05;67.56;100794.28;2189291;81;20996;-80
2022/01/12 04:56:32;;;;;;;65.97;26.90;;;;;;;-3.06;67.55;100799.77;2188664;81;20951;-79
2022/01/12 04:59:35;;;;;;;59.50;27.73;;;;;;;-3.03;67.65;100797.89;2189125;81;20968;-79
2022/01/12 05:09:29;;;;;;;48.80;22.50;;;;;;;-3.14;67.53;100793.41;2171696;81;21129;-80
2022/01/12 05:15:36;;;;;;;61.03;25.43;;;;;;;-3.09;67.61;100785.81;2188031;81;20963;-80
2022/01/12 05:18:37;;;;;;;61.80;26.60;;;;;;;-2.98;67.78;100787.36;2187593;81;21045;-80
2022/01/12 05:21:38;;;;;;;83.27;29.33;;;;;;;-2.89;67.78;100796.27;2188113;81;20988;-79
2022/01/12 05:24:38;;;;;;;58.17;26.00;;;;;;;-2.82;67.53;100793.92;2188497;81;20928;-80
2022/01/12 05:27:38;;;;;;;60.30;25.97;;;;;;;-2.78;67.49;100787.97;2188137;81;20952;-81
2022/01/12 05:30:39;;;;;;;58.23;24.03;;;;;;;-2.76;67.41;100781.73;2188058;81;20996;-81
2022/01/12 05:33:46;;;;;;;54.50;24.63;;;;;;;-2.70;67.41;100786.14;2187592;81;20992;-80
2022/01/12 05:36:42;;;;;;;55.97;24.77;;;;;;;-2.67;67.30;100783.88;2187213;81;20975;-82
2022/01/12 05:39:43;;;;;;;49.60;24.23;;;;;;;-2.63;67.00;100793.63;2188261;81;21333;-81
2022/01/12 05:42:43;;;;;;;54.73;24.13;;;;;;;-2.61;66.71;100794.30;2188138;81;21378;-82
2022/01/12 05:45:45;;;;;;;51.43;24.07;;;;;;;-2.61;66.53;100803.24;2188145;81;21007;-82
2022/01/12 05:52:04;;;;;;;50.47;23.53;;;;;;;-2.55;67.14;100795.66;2187937;81;20943;-81
2022/01/12 05:55:05;;;;;;;97.00;28.27;;;;;;;-2.50;66.95;100804.67;2187982;81;20964;-81
2022/01/12 05:58:05;;;;;;;65.80;27.43;;;;;;;-2.48;66.67;100803.16;2188317;81;20971;-81
2022/01/12 06:01:06;;;;;;;123.70;54.43;;;;;;;-2.40;66.58;100806.05;2187693;81;20972;-79
2022/01/12 06:04:06;;;;;;;80.03;38.20;;;;;;;-2.33;66.59;100806.77;2187209;81;20963;-78
2022/01/12 06:07:07;;;;;;;84.13;39.10;;;;;;;-2.28;66.30;100801.70;2187680;81;21311;-80
2022/01/12 06:10:07;;;;;;;77.37;36.10;;;;;;;-2.22;66.13;100798.81;2187123;81;20983;-80
2022/01/12 06:13:08;;;;;;;62.40;27.60;;;;;;;-2.19;66.10;100803.31;2187739;81;20940;-78
2022/01/12 06:16:08;;;;;;;83.43;39.50;;;;;;;-2.21;64.63;100808.28;2187470;81;21031;-79
2022/01/12 06:19:09;;;;;;;134.57;64.07;;;;;;;-2.33;65.42;100802.93;2187619;81;21019;-78
2022/01/12 06:22:09;;;;;;;79.30;35.93;;;;;;;-2.30;65.52;100802.31;2187421;81;20972;-78
2022/01/12 06:25:14;;;;;;;56.60;28.17;;;;;;;-2.26;65.59;100805.30;2188276;81;20980;-80
2022/01/12 06:28:54;;;;;;;76.27;34.40;;;;;;;-2.32;65.34;100805.11;2187248;81;20967;-80
2022/01/12 06:31:27;;;;;;;72.00;33.20;;;;;;;-2.31;65.95;100803.07;2184481;81;21386;-80
2022/01/12 06:34:27;;;;;;;159.60;36.43;;;;;;;-2.32;65.16;100809.84;2171780;81;21020;-81
2022/01/12 06:37:27;;;;;;;63.73;25.83;;;;;;;-2.38;64.54;100813.48;2171339;81;20969;-80
2022/01/12 06:40:28;;;;;;;65.60;26.37;;;;;;;-2.41;65.04;100817.04;2171400;81;20977;-80
2022/01/12 06:43:29;;;;;;;46.57;20.80;;;;;;;-2.40;64.72;100815.91;2170814;81;21608;-80
2022/01/12 06:46:31;;;;;;;32.53;16.97;;;;;;;-2.45;64.37;100818.78;2171635;81;20984;-80
2022/01/12 06:49:31;;;;;;;33.80;17.13;;;;;;;-2.57;63.97;100827.10;2171228;82;20972;-80
2022/01/12 06:52:32;;;;;;;36.33;16.93;;;;;;;-2.65;64.11;100825.44;2170889;81;21336;-79
2022/01/12 06:55:32;;;;;;;30.13;16.30;;;;;;;-2.66;64.09;100827.48;2170805;81;21678;-80
2022/01/12 06:58:33;;;;;;;42.77;16.33;;;;;;;-2.70;63.89;100834.71;2170961;81;20996;-80
2022/01/12 07:01:33;;;;;;;32.40;16.10;;;;;;;-2.75;64.01;100830.44;2170545;81;20933;-81
2022/01/12 07:04:35;;;;;;;34.77;18.90;;;;;;;-2.87;61.95;100829.27;2171257;81;20956;-82
2022/01/12 07:07:35;;;;;;;32.23;16.30;;;;;;;-3.16;61.90;100846.00;2170471;81;20906;-81
2022/01/12 07:10:36;;;;;;;26.50;15.07;;;;;;;-3.36;62.69;100838.58;2170587;81;20960;-80
2022/01/12 07:13:39;;;;;;;30.70;13.70;;;;;;;-3.42;62.96;100848.56;2171010;81;20909;-81
2022/01/12 07:16:40;;;;;;;23.97;12.77;;;;;;;-3.44;62.52;100850.06;2171232;81;20932;-81
2022/01/12 07:19:40;;;;;;;25.93;13.83;;;;;;;-3.54;62.51;100850.41;2171106;81;21023;-82
2022/01/12 07:22:40;;;;;;;26.77;13.47;;;;;;;-3.59;63.15;100860.53;2172560;81;20972;-82
2022/01/12 07:25:41;;;;;;;25.20;13.43;;;;;;;-3.65;62.55;100862.86;2172011;81;20976;-81
2022/01/12 07:28:43;;;;;;;27.17;14.57;;;;;;;-3.73;62.98;100858.64;2170508;81;21383;-81
2022/01/12 07:31:45;;;;;;;44.63;20.03;;;;;;;-3.68;63.10;100873.66;2172082;81;21008;-80
2022/01/12 07:34:46;;;;;;;35.63;17.73;;;;;;;-3.70;63.20;100870.43;2187834;81;21382;-81
2022/01/12 07:37:46;;;;;;;34.07;18.40;;;;;;;-3.72;63.21;100877.03;2188390;81;20972;-80
2022/01/12 07:40:46;;;;;;;35.47;17.43;;;;;;;-3.73;63.78;100871.02;2188772;81;20976;-82
2022/01/12 07:43:47;;;;;;;39.37;18.13;;;;;;;-3.66;63.52;100875.99;2189621;81;20980;-81
2022/01/12 07:46:48;;;;;;;37.30;16.10;;;;;;;-3.62;63.36;100882.30;2188876;81;20968;-80
2022/01/12 07:49:48;;;;;;;27.97;13.07;;;;;;;-3.67;63.15;100891.16;2188620;81;21335;-81
2022/01/12 07:52:53;;;;;;;32.33;15.03;;;;;;;-3.69;63.02;100884.63;2188911;81;21328;-81
2022/01/12 07:55:51;;;;;;;38.80;18.23;;;;;;;-3.63;63.58;100887.78;2188989;81;21063;-81
2022/01/12 07:58:51;;;;;;;41.20;19.50;;;;;;;-3.52;63.32;100886.30;2188706;81;20952;-80
2022/01/12 08:01:52;;;;;;;37.70;18.80;;;;;;;-3.41;63.52;100885.74;2188962;81;20975;-82
2022/01/12 08:04:52;;;;;;;36.80;17.53;;;;;;;-3.30;63.76;100886.80;2188783;81;21395;-81
2022/01/12 08:07:55;;;;;;;36.47;18.67;;;;;;;-3.19;63.67;100895.13;2189083;81;21405;-81
2022/01/12 08:10:55;;;;;;;31.70;15.40;;;;;;;-3.07;62.82;100880.10;2189097;81;21335;-81
2022/01/12 08:13:56;;;;;;;27.17;14.20;;;;;;;-3.03;61.05;100893.70;2188658;81;21003;-83
2022/01/12 08:16:56;;;;;;;30.97;15.80;;;;;;;-3.12;61.82;100894.08;2188758;81;20968;-82
2022/01/12 08:19:58;;;;;;;33.30;15.33;;;;;;;-3.10;61.88;100896.03;2189014;81;21355;-81
2022/01/12 08:22:58;;;;;;;33.40;16.97;;;;;;;-3.05;61.71;100905.05;2188702;81;21368;-82
2022/01/12 08:25:59;;;;;;;36.90;16.80;;;;;;;-3.03;61.70;100901.37;2188457;81;20937;-80
2022/01/12 08:29:00;;;;;;;40.93;19.23;;;;;;;-2.99;62.53;100893.25;2188660;81;21617;-80
2022/01/12 08:32:00;;;;;;;49.47;23.90;;;;;;;-2.85;62.43;100898.41;2186898;81;21394;-80
2022/01/12 08:35:01;;;;;;;40.40;21.60;;;;;;;-2.72;62.29;100892.08;2172092;81;21016;-81
2022/01/12 08:38:01;;;;;;;45.73;22.27;;;;;;;-2.63;61.95;100886.95;2172063;81;20997;-80
2022/01/12 08:41:02;;;;;;;36.30;18.83;;;;;;;-2.52;62.25;100883.80;2171704;81;20985;-79
2022/01/12 08:44:02;;;;;;;42.37;21.00;;;;;;;-2.40;61.27;100873.45;2171638;81;21312;-81
2022/01/12 08:47:03;;;;;;;37.77;19.63;;;;;;;-2.31;61.42;100876.88;2171904;81;21333;-81
2022/01/12 08:50:03;;;;;;;75.97;20.77;;;;;;;-2.18;61.37;100870.35;2171687;81;21001;-82
2022/01/12 08:53:04;;;;;;;49.90;23.30;;;;;;;-2.07;61.07;100869.70;2171490;81;20937;-80
2022/01/12 08:56:04;;;;;;;132.20;33.87;;;;;;;-1.98;60.82;100875.30;2171280;81;20933;-80
2022/01/12 08:59:05;;;;;;;39.70;18.77;;;;;;;-1.84;60.95;100878.23;2171131;81;20987;-81
2022/01/12 09:02:09;;;;;;;38.83;19.13;;;;;;;-1.75;60.38;100885.48;2170570;81;20921;-80
2022/01/12 09:05:11;;;;;;;28.17;14.83;;;;;;;-1.66;59.91;100887.64;2170861;81;20984;-81
2022/01/12 09:08:12;;;;;;;39.37;17.93;;;;;;;-1.75;59.16;100876.14;2170215;81;20944;-79
2022/01/12 09:11:13;;;;;;;39.70;20.63;;;;;;;-1.69;59.95;100879.68;2170031;81;21051;-80
2022/01/12 09:14:15;;;;;;;55.60;28.57;;;;;;;-1.64;59.79;100875.88;2170344;81;20947;-81
2022/01/12 09:17:19;;;;;;;26.43;15.40;;;;;;;-1.52;59.67;100865.48;2152837;82;20936;-79
2022/01/12 09:20:20;;;;;;;35.43;18.00;;;;;;;-1.43;58.80;100856.45;2171146;81;20996;-80
2022/01/12 09:23:21;;;;;;;27.07;14.47;;;;;;;-1.42;59.21;100853.13;2170922;81;21040;-80
2022/01/12 09:26:21;;;;;;;24.73;14.00;;;;;;;-1.34;57.96;100849.59;2171457;81;20925;-81
2022/01/12 09:29:23;;;;;;;25.10;13.80;;;;;;;-1.31;58.38;100844.36;2171706;81;20980;-81
2022/01/12 09:32:24;;;;;;;30.67;16.03;;;;;;;-1.18;58.65;100845.08;2171683;81;20984;-81
2022/01/12 09:35:24;;;;;;;29.07;15.73;;;;;;;-1.07;57.69;100848.60;2171105;81;20937;-81
2022/01/12 09:38:25;;;;;;;29.50;13.80;;;;;;;-1.12;57.84;100852.42;2171135;81;20957;-81
2022/01/12 09:41:27;;;;;;;1029.60;73.13;;;;;;;-1.04;57.52;100854.91;2170456;82;21427;-83
2022/01/12 09:44:27;;;;;;;62.97;14.80;;;;;;;-0.95;57.79;100847.13;2170166;82;21125;-82
2022/01/12 09:47:28;;;;;;;29.07;14.53;;;;;;;-0.84;57.44;100853.24;2170028;81;20960;-79
2022/01/12 09:50:28;;;;;;;23.63;13.47;;;;;;;-0.76;57.14;100857.37;2170195;81;20965;-80
2022/01/12 09:53:29;;;;;;;22.10;13.57;;;;;;;-0.61;56.59;100847.56;2170350;81;20952;-81
2022/01/12 09:56:30;;;;;;;135.63;16.80;;;;;;;-0.47;56.36;100848.00;2169405;82;21309;-81
2022/01/12 09:59:30;;;;;;;21.83;13.50;;;;;;;-0.20;56.53;100830.61;2170738;81;20992;-81
2022/01/12 10:02:31;;;;;;;64.97;14.70;;;;;;;0.08;56.04;100828.75;2170523;81;20992;-79
2022/01/12 10:05:32;;;;;;;191.30;21.63;;;;;;;0.31;56.15;100827.73;2171552;81;20956;-80
2022/01/12 10:08:32;;;;;;;27.50;12.87;;;;;;;0.41;55.67;100823.87;2171074;81;20969;-81
2022/01/12 10:11:33;;;;;;;20.97;12.83;;;;;;;0.47;55.72;100828.23;2171257;81;21027;-81
2022/01/12 10:14:33;;;;;;;17.83;11.47;;;;;;;0.54;55.33;100821.55;2172250;81;20944;-82
2022/01/12 10:17:34;;;;;;;20.00;12.83;;;;;;;0.61;54.03;100819.98;2172166;81;20953;-81
2022/01/12 10:20:38;;;;;;;21.20;12.83;;;;;;;0.40;54.44;100807.95;2171583;81;20933;-83
2022/01/12 10:23:40;;;;;;;23.30;13.33;;;;;;;0.37;54.39;100817.97;2171662;81;20980;-83
2022/01/12 10:26:39;;;;;;;19.07;12.03;;;;;;;0.25;54.52;100820.80;2171370;81;21031;-80
2022/01/12 10:29:40;;;;;;;18.80;12.30;;;;;;;0.11;53.84;100821.31;2172540;81;20995;-81
2022/01/12 10:32:40;;;;;;;32.70;18.43;;;;;;;-0.07;54.47;100816.39;2174116;81;21062;-80
2022/01/12 10:35:41;;;;;;;19.63;11.90;;;;;;;-0.08;55.00;100807.27;2188821;81;20938;-80
2022/01/12 10:38:41;;;;;;;69.20;16.20;;;;;;;-0.07;54.89;100802.27;2189485;81;20971;-81
2022/01/12 10:41:42;;;;;;;26.17;14.00;;;;;;;-0.05;55.13;100799.83;2189107;81;21296;-81
2022/01/12 10:44:42;;;;;;;33.90;14.90;;;;;;;-0.01;54.10;100799.31;2188781;81;20948;-81
2022/01/12 10:47:43;;;;;;;26.87;14.23;;;;;;;-0.18;54.78;100805.98;2188810;81;20968;-80
2022/01/12 10:50:44;;;;;;;23.50;13.00;;;;;;;-0.19;54.82;100807.64;2188906;81;20972;-81
2022/01/12 10:53:44;;;;;;;20.70;12.63;;;;;;;-0.15;55.26;100807.14;2188115;81;20992;-79
2022/01/12 10:56:45;;;;;;;25.70;12.60;;;;;;;-0.11;55.06;100793.80;2187610;81;20940;-80
2022/01/12 10:59:45;;;;;;;23.50;13.83;;;;;;;-0.07;55.28;100790.72;2186786;81;20936;-79
2022/01/12 11:02:46;;;;;;;20.73;12.50;;;;;;;0.03;55.37;100786.00;2186511;81;20913;-80
2022/01/12 11:05:47;;;;;;;95.77;17.50;;;;;;;0.06;55.18;100781.51;2187026;81;20964;-80
2022/01/12 11:08:49;;;;;;;27.67;12.70;;;;;;;-0.03;54.78;100786.35;2186438;81;20937;-80
2022/01/12 11:11:49;;;;;;;21.97;13.33;;;;;;;0.00;54.86;100781.89;2187429;81;20971;-79
2022/01/12 11:14:50;;;;;;;74.07;15.17;;;;;;;-0.02;55.27;100776.98;2187505;81;21666;-80
2022/01/12 11:17:50;;;;;;;34.80;13.53;;;;;;;-0.06;55.21;100771.98;2187295;81;20945;-79
2022/01/12 11:20:51;;;;;;;34.00;17.93;;;;;;;-0.04;55.21;100776.85;2188671;81;21043;-80
2022/01/12 11:23:52;;;;;;;28.50;13.73;;;;;;;-0.05;55.48;100766.07;2188040;81;20936;-77
2022/01/12 11:26:52;;;;;;;27.40;13.10;;;;;;;0.02;55.26;100778.17;2187780;81;20968;-80
2022/01/12 11:29:53;;;;;;;25.30;13.70;;;;;;;-0.05;54.66;100782.76;2186790;81;21007;-79
2022/01/12 11:32:53;;;;;;;32.27;13.97;;;;;;;-0.14;54.74;100781.98;2187689;81;21022;-79
2022/01/12 11:35:53;;;;;;;24.57;13.33;;;;;;;-0.26;54.91;100783.51;2187955;81;20909;-79
2022/01/12 11:38:54;;;;;;;33.73;13.80;;;;;;;-0.32;54.59;100780.04;2188123;81;21328;-79
2022/01/12 11:41:54;;;;;;;22.63;13.00;;;;;;;-0.41;55.40;100777.97;2187152;81;21417;-79
2022/01/12 11:44:55;;;;;;;26.23;14.07;;;;;;;-0.42;55.33;100774.89;2187850;81;21332;-81
2022/01/12 11:47:55;;;;;;;32.23;16.63;;;;;;;-0.51;55.42;100780.52;2187301;81;21294;-79
2022/01/12 11:50:56;;;;;;;27.50;14.97;;;;;;;-0.65;55.86;100770.73;2187405;81;20976;-79
2022/01/12 11:53:56;;;;;;;29.37;14.57;;;;;;;-0.67;56.09;100771.89;2188914;81;20995;-79
2022/01/12 11:56:57;;;;;;;39.97;16.07;;;;;;;-0.60;56.39;100778.83;2188654;81;20948;-82
2022/01/12 11:59:58;;;;;;;194.40;113.37;;;;;;;-0.45;56.57;100777.58;2188255;81;20995;-81
2022/01/12 12:03:01;;;;;;;51.50;23.63;;;;;;;-0.52;61.64;100771.02;2187992;81;20991;-80
2022/01/12 12:06:02;;;;;;;25.57;14.90;;;;;;;3.38;61.01;100757.16;2187994;81;20956;-82
2022/01/12 12:09:02;;;;;;;27.23;16.10;;;;;;;3.03;53.00;100752.97;2186902;81;21653;-80
2022/01/12 12:12:03;;;;;;;31.23;16.60;;;;;;;1.99;52.18;100746.04;2187216;81;21307;-81
2022/01/12 12:15:03;;;;;;;26.50;16.73;;;;;;;1.41;52.68;100740.25;2186679;81;20936;-80
2022/01/12 12:18:04;;;;;;;34.13;18.03;;;;;;;1.08;53.08;100741.08;2186928;81;20964;-81
2022/01/12 12:21:05;;;;;;;58.00;20.17;;;;;;;0.80;53.03;100739.23;2187462;81;21148;-81
2022/01/12 12:24:05;;;;;;;39.00;20.50;;;;;;;0.56;53.68;100731.34;2186982;81;21474;-81
2022/01/12 12:27:06;;;;;;;53.50;24.00;;;;;;;0.51;54.01;100732.64;2187249;81;20976;-80
2022/01/12 12:30:06;;;;;;;37.57;20.07;;;;;;;0.43;54.50;100726.38;2187402;81;21059;-81
2022/01/12 12:33:07;;;;;;;44.80;21.27;;;;;;;0.34;54.83;100737.18;2186030;81;20983;-83
2022/01/12 12:36:12;;;;;;;34.93;19.13;;;;;;;0.14;58.82;100732.97;2171649;81;20975;-82
2022/01/12 12:39:10;;;;;;;37.00;18.67;;;;;;;0.35;55.16;100728.70;2171827;81;20940;-82
2022/01/12 12:42:11;;;;;;;142.10;20.17;;;;;;;0.08;55.49;100726.94;2171975;81;20961;-81
2022/01/12 12:45:12;;;;;;;35.07;18.43;;;;;;;0.04;55.68;100725.28;2172484;81;20976;-81
2022/01/12 12:48:12;;;;;;;35.63;19.30;;;;;;;-0.08;56.40;100734.11;2172099;81;21020;-82
2022/01/12 12:51:14;;;;;;;36.00;19.37;;;;;;;-0.19;56.57;100732.31;2171889;81;20968;-80
2022/01/12 12:54:14;;;;;;;38.47;19.33;;;;;;;-0.25;56.92;100723.72;2171689;82;21356;-79
2022/01/12 12:57:20;;;;;;;43.20;21.47;;;;;;;-0.35;57.09;100727.56;2171764;81;20972;-80
2022/01/12 13:00:17;;;;;;;34.80;19.43;;;;;;;-0.39;57.36;100724.22;2171086;81;21045;-80
2022/01/12 13:03:18;;;;;;;35.40;19.30;;;;;;;-0.39;57.88;100715.23;2170846;81;20956;-81
2022/01/12 13:06:18;;;;;;;53.33;20.97;;;;;;;-0.47;57.74;100714.59;2171308;81;20956;-80
2022/01/12 13:09:19;;;;;;;34.80;19.90;;;;;;;-0.50;58.34;100724.98;2171576;81;20987;-79
2022/01/12 13:12:19;;;;;;;36.90;19.47;;;;;;;-0.51;58.08;100721.52;2171721;81;20945;-81
2022/01/12 13:15:20;;;;;;;43.37;19.87;;;;;;;-0.50;58.15;100709.59;2170799;81;20965;-81
2022/01/12 13:18:20;;;;;;;432.77;37.77;;;;;;;-0.48;58.30;100717.93;2170526;81;20960;-79
2022/01/12 13:21:21;;;;;;;35.57;20.00;;;;;;;-0.37;58.33;100722.68;2170664;82;21664;-80
2022/01/12 13:24:23;;;;;;;46.00;23.03;;;;;;;-0.39;58.13;100728.07;2170501;81;21597;-81
2022/01/12 13:27:23;;;;;;;53.73;25.33;;;;;;;-0.39;58.27;100731.92;2170442;82;20960;-81
2022/01/12 13:30:24;;;;;;;49.27;23.93;;;;;;;-0.45;58.21;100732.30;2170475;81;21008;-81
2022/01/12 13:33:25;;;;;;;47.13;24.23;;;;;;;-0.50;58.65;100732.67;2171182;81;21810;-83
2022/01/12 13:36:25;;;;;;;50.93;23.93;;;;;;;-0.55;58.65;100732.67;2171353;81;21019;-81
2022/01/12 13:39:26;;;;;;;43.10;22.30;;;;;;;-0.61;58.63;100729.58;2171917;81;21357;-82
2022/01/12 13:42:26;;;;;;;34.80;18.90;;;;;;;-0.76;58.99;100724.94;2171203;81;21379;-80
2022/01/12 13:45:30;;;;;;;41.43;21.27;;;;;;;-0.79;59.20;100719.92;2170708;81;20952;-80
2022/01/12 13:48:31;;;;;;;45.80;22.00;;;;;;;-0.89;59.48;100714.73;2170903;81;20951;-80
2022/01/12 13:51:37;;;;;;;49.57;23.50;;;;;;;-0.98;59.50;100717.41;2170839;81;21726;-81
2022/01/12 13:54:38;;;;;;;48.80;23.13;;;;;;;-1.02;59.78;100721.37;2170870;82;21000;-83
2022/01/12 13:57:38;;;;;;;42.23;21.37;;;;;;;-1.08;60.01;100728.52;2170970;82;21395;-82
2022/01/12 14:00:39;;;;;;;45.53;23.77;;;;;;;-1.16;60.03;100723.50;2170942;81;20941;-82
2022/01/12 14:03:40;;;;;;;42.70;21.17;;;;;;;-1.18;60.37;100727.59;2170985;81;20976;-81
2022/01/12 14:06:41;;;;;;;40.67;21.23;;;;;;;-1.27;60.15;100718.71;2171484;81;20932;-82
2022/01/12 14:09:43;;;;;;;42.57;23.33;;;;;;;-1.32;60.51;100714.84;2170516;81;20971;-81
2022/01/12 14:12:44;;;;;;;47.90;23.37;;;;;;;-1.37;60.61;100722.13;2171027;81;21340;-81
2022/01/12 14:15:47;;;;;;;41.37;20.37;;;;;;;-1.36;60.80;100721.75;2171759;81;20941;-81
2022/01/12 14:18:47;;;;;;;51.97;22.90;;;;;;;-1.36;61.04;100727.77;2171571;81;20988;-80
2022/01/12 14:21:48;;;;;;;38.97;19.67;;;;;;;-1.41;61.22;100720.44;2170396;81;20949;-81
2022/01/12 14:24:48;;;;;;;45.53;21.43;;;;;;;-1.44;61.21;100718.89;2171573;81;20936;-81
2022/01/12 14:27:49;;;;;;;50.60;24.07;;;;;;;-1.47;61.49;100726.30;2171646;81;20976;-81
2022/01/12 14:30:49;;;;;;;38.70;19.90;;;;;;;-1.49;61.71;100730.01;2171369;81;20984;-81
2022/01/12 14:33:50;;;;;;;47.57;23.00;;;;;;;-1.51;61.80;100736.66;2173748;81;21062;-81
2022/01/12 14:36:50;;;;;;;57.47;21.57;;;;;;;-1.57;61.75;100717.28;2187677;81;20928;-81
2022/01/12 14:39:51;;;;;;;62.40;22.00;;;;;;;-1.57;62.19;100727.53;2188124;81;20940;-82
2022/01/12 14:42:52;;;;;;;39.77;20.00;;;;;;;-1.59;62.19;100716.25;2189044;81;20960;-81
2022/01/12 14:45:52;;;;;;;52.73;24.20;;;;;;;-1.66;62.18;100722.11;2188765;81;20983;-81
2022/01/12 14:48:53;;;;;;;62.00;28.00;;;;;;;-1.73;62.26;100727.44;2189470;81;21382;-81
2022/01/12 14:51:53;;;;;;;95.53;39.00;;;;;;;-1.82;62.51;100712.50;2189218;81;21443;-81
2022/01/12 14:57:56;;;;;;;91.20;38.33;;;;;;;-2.02;62.89;100722.22;2171601;81;20971;-81
2022/01/12 15:00:56;;;;;;;117.40;46.90;;;;;;;-2.12;63.12;100728.54;2188782;81;20943;-81